KSSF

Stinson Municipal Airport

San Antonio, Texas, USA
METAR KSSF 202353Z 14005KT 10SM CLR 38/17 A2990 RMK AO2 SLP110 T03780167 10389 20333 55009 $
Observed Flight Rules
Aug-20 @ 23:53 UTC (17 minutes ago) Visual Flight Rules
Wind Visibility Clouds
140° at 5 knots 10 miles
  • Clear skies
Temperatures Readings
Current 38°C / 100°F
Dewpoint 17°C / 63°F
Humidity 29%
Altimeter 29.9" Hg
Pressure 1011 hPa
Elevation 176
METAR KSSF 202353Z 14005KT 10SM CLR 38/17 A2990 RMK AO2 SLP110 T03780167 10389 20333 55009 $
Observed Flight Rules
Aug-20 @ 23:53 UTC
(17 minutes ago)
VFR
Wind Visibility
140° at 5 knots 10 miles
Clouds
  • Clear skies
Temperature Dewpoint
38°C / 100°F 17°C / 63°F
Humidity Altimeter Pressure
29% 29.9" Hg 1011 hPa